KDHN/DHN METAR and TAF weather

Enter ICAO airport designator
Station Type Date Time Source
KDHN METAR 2019/05/20 10:53 UTC NOAA

KDHN 201053Z 33003KT 7SM CLR 21/19 A3006 RMK AO2 SLP175 T02110194


Station Type Date Time Source
KDHN Decoded METAR 2019/05/20 10:53 UTC NOAA

DOTHAN AIRPORT, AL, United States (KDHN) 31-19N 085-27W 113M
May 20, 2019 - 06:53 AM EDT / 2019.05.20 1053 UTC
Wind: from the NNW (330 degrees) at 3 MPH (3 KT):0
Visibility: 7 mile(s):0
Sky conditions: clear
Temperature: 70.0 F (21.1 C)
Dew Point: 66.9 F (19.4 C)
Relative Humidity: 90%
Pressure (altimeter): 30.06 in. Hg (1017 hPa)
ob: KDHN 201053Z 33003KT 7SM CLR 21/19 A3006 RMK AO2 SLP175 T02110194
cycle: 11

Station Type Date Time Source
KDHN TAF 2019/05/20 06:22 UTC NOAA

TAF KDHN 200520Z 2006/2106 VRB03KT P6SM SKC
FM201800 27006KT P6SM SCT050

Example: see airport list